Ashland, North Carolina
Current Conditions -  °F | °C
As of 2:35 PM on Thursday 18 Dec 2014 (Local Time) from KGEV Reporting Station
Overcast Overcast  
Wind Chill: 44°   Ceiling: 4100
Heat Index: 44°   Visibility: 10mi
Dew Point:   Wind: 3mph
Humidity: 19%   Direction: 320°NW
Pressure: 30.02"   Gusts: NA
Location:  36.4481°N, 81.6486°W
Report Text: KGEV 181935Z AUTO 32003KT 10SM OVC041 07/M16 A3002 RMK AO2 T00651157
Loading
Personal Weather Stations






























Interactive Weather Map New forecast layout! Learn more

10-Day Weather Forecast

Advertisements
Track Severe Weather on mobile